sensor_id;sensor_type;location;lat;lon;timestamp;temperature;humidity
6536;DHT22;34330;52.08032700;5.40923460;2022-07-06T00:00:22;18.40;59.50
6536;DHT22;34330;52.08032700;5.40923460;2022-07-06T00:07:48;18.30;59.70
6536;DHT22;34330;52.08032700;5.40923460;2022-07-06T00:20:10;18.10;60.20
6536;DHT22;34330;52.08032700;5.40923460;2022-07-06T00:22:38;18.10;60.20
6536;DHT22;34330;52.08032700;5.40923460;2022-07-06T00:25:08;18.10;60.60
6536;DHT22;34330;52.08032700;5.40923460;2022-07-06T00:30:05;18.00;60.40
6536;DHT22;34330;52.08032700;5.40923460;2022-07-06T00:42:28;17.90;61.50
6536;DHT22;34330;52.08032700;5.40923460;2022-07-06T00:55:07;17.70;61.80
6536;DHT22;34330;52.08032700;5.40923460;2022-07-06T00:57:37;17.70;62.10
6536;DHT22;34330;52.08032700;5.40923460;2022-07-06T01:00:07;17.70;62.30
6536;DHT22;34330;52.08032700;5.40923460;2022-07-06T01:05:06;17.60;62.40
6536;DHT22;34330;52.08032700;5.40923460;2022-07-06T01:10:03;17.60;62.70
6536;DHT22;34330;52.08032700;5.40923460;2022-07-06T01:12:34;17.40;64.30
6536;DHT22;34330;52.08032700;5.40923460;2022-07-06T01:15:06;17.40;64.30
6536;DHT22;34330;52.08032700;5.40923460;2022-07-06T01:20:11;17.40;63.90
6536;DHT22;34330;52.08032700;5.40923460;2022-07-06T01:22:40;17.40;63.70
6536;DHT22;34330;52.08032700;5.40923460;2022-07-06T01:27:38;17.40;63.60
6536;DHT22;34330;52.08032700;5.40923460;2022-07-06T01:30:08;17.40;63.60
6536;DHT22;34330;52.08032700;5.40923460;2022-07-06T01:32:37;17.40;63.60
6536;DHT22;34330;52.08032700;5.40923460;2022-07-06T01:35:07;17.30;63.50
6536;DHT22;34330;52.08032700;5.40923460;2022-07-06T01:37:37;17.30;63.70
6536;DHT22;34330;52.08032700;5.40923460;2022-07-06T01:40:07;17.30;63.80
6536;DHT22;34330;52.08032700;5.40923460;2022-07-06T01:45:05;17.20;63.50
6536;DHT22;34330;52.08032700;5.40923460;2022-07-06T01:47:33;17.20;64.20
6536;DHT22;34330;52.08032700;5.40923460;2022-07-06T01:50:04;17.30;64.30
6536;DHT22;34330;52.08032700;5.40923460;2022-07-06T01:52:33;17.20;64.30
6536;DHT22;34330;52.08032700;5.40923460;2022-07-06T01:55:03;17.10;64.40
6536;DHT22;34330;52.08032700;5.40923460;2022-07-06T01:57:31;17.10;64.40
6536;DHT22;34330;52.08032700;5.40923460;2022-07-06T02:04:56;17.10;64.60
6536;DHT22;34330;52.08032700;5.40923460;2022-07-06T02:07:24;17.10;65.10
6536;DHT22;34330;52.08032700;5.40923460;2022-07-06T02:09:52;17.30;65.20
6536;DHT22;34330;52.08032700;5.40923460;2022-07-06T02:12:22;17.00;65.10
6536;DHT22;34330;52.08032700;5.40923460;2022-07-06T02:14:50;17.00;65.40
6536;DHT22;34330;52.08032700;5.40923460;2022-07-06T02:17:18;17.00;65.30
6536;DHT22;34330;52.08032700;5.40923460;2022-07-06T02:19:46;16.90;65.40
6536;DHT22;34330;52.08032700;5.40923460;2022-07-06T02:22:14;16.90;65.40
6536;DHT22;34330;52.08032700;5.40923460;2022-07-06T02:24:42;16.90;65.60
6536;DHT22;34330;52.08032700;5.40923460;2022-07-06T02:27:10;16.90;65.80
6536;DHT22;34330;52.08032700;5.40923460;2022-07-06T02:29:40;16.90;66.20
6536;DHT22;34330;52.08032700;5.40923460;2022-07-06T02:32:08;16.90;66.60
6536;DHT22;34330;52.08032700;5.40923460;2022-07-06T02:34:36;16.90;66.40
6536;DHT22;34330;52.08032700;5.40923460;2022-07-06T02:37:07;16.90;66.60
6536;DHT22;34330;52.08032700;5.40923460;2022-07-06T02:42:04;16.90;66.40
6536;DHT22;34330;52.08032700;5.40923460;2022-07-06T02:44:32;16.90;66.60
6536;DHT22;34330;52.08032700;5.40923460;2022-07-06T02:47:02;16.90;67.50
6536;DHT22;34330;52.08032700;5.40923460;2022-07-06T02:49:30;16.90;67.90
6536;DHT22;34330;52.08032700;5.40923460;2022-07-06T02:51:58;17.00;67.20
6536;DHT22;34330;52.08032700;5.40923460;2022-07-06T02:54:26;17.00;67.10
6536;DHT22;34330;52.08032700;5.40923460;2022-07-06T02:56:54;17.00;67.20
6536;DHT22;34330;52.08032700;5.40923460;2022-07-06T02:59:22;17.00;67.20
6536;DHT22;34330;52.08032700;5.40923460;2022-07-06T03:01:50;17.00;67.30
6536;DHT22;34330;52.08032700;5.40923460;2022-07-06T03:04:20;17.00;67.50
6536;DHT22;34330;52.08032700;5.40923460;2022-07-06T03:06:48;17.10;67.30
6536;DHT22;34330;52.08032700;5.40923460;2022-07-06T03:09:15;17.10;67.80
6536;DHT22;34330;52.08032700;5.40923460;2022-07-06T03:11:44;17.10;67.90
6536;DHT22;34330;52.08032700;5.40923460;2022-07-06T03:14:12;17.10;68.10
6536;DHT22;34330;52.08032700;5.40923460;2022-07-06T03:16:40;17.00;68.00
6536;DHT22;34330;52.08032700;5.40923460;2022-07-06T03:19:16;17.10;68.40
6536;DHT22;34330;52.08032700;5.40923460;2022-07-06T03:21:45;17.20;68.60
6536;DHT22;34330;52.08032700;5.40923460;2022-07-06T03:24:13;17.20;68.70
6536;DHT22;34330;52.08032700;5.40923460;2022-07-06T03:26:41;17.20;68.60
6536;DHT22;34330;52.08032700;5.40923460;2022-07-06T03:29:09;17.20;68.70
6536;DHT22;34330;52.08032700;5.40923460;2022-07-06T03:31:38;17.20;68.80
6536;DHT22;34330;52.08032700;5.40923460;2022-07-06T03:34:06;17.20;68.90
6536;DHT22;34330;52.08032700;5.40923460;2022-07-06T03:36:34;17.20;68.90
6536;DHT22;34330;52.08032700;5.40923460;2022-07-06T03:39:06;17.30;69.10
6536;DHT22;34330;52.08032700;5.40923460;2022-07-06T03:41:34;17.30;69.40
6536;DHT22;34330;52.08032700;5.40923460;2022-07-06T03:44:03;20.40;72.20
6536;DHT22;34330;52.08032700;5.40923460;2022-07-06T03:46:31;17.40;69.50
6536;DHT22;34330;52.08032700;5.40923460;2022-07-06T03:48:59;18.40;71.10
6536;DHT22;34330;52.08032700;5.40923460;2022-07-06T03:51:27;17.30;69.80
6536;DHT22;34330;52.08032700;5.40923460;2022-07-06T03:53:55;17.40;69.70
6536;DHT22;34330;52.08032700;5.40923460;2022-07-06T03:56:25;17.40;69.60
6536;DHT22;34330;52.08032700;5.40923460;2022-07-06T03:58:56;17.40;70.10
6536;DHT22;34330;52.08032700;5.40923460;2022-07-06T04:01:24;17.50;70.00
6536;DHT22;34330;52.08032700;5.40923460;2022-07-06T04:03:53;17.50;69.70
6536;DHT22;34330;52.08032700;5.40923460;2022-07-06T04:06:21;17.50;69.70
6536;DHT22;34330;52.08032700;5.40923460;2022-07-06T04:08:49;17.50;69.80
6536;DHT22;34330;52.08032700;5.40923460;2022-07-06T04:11:17;17.50;69.60
6536;DHT22;34330;52.08032700;5.40923460;2022-07-06T04:13:46;17.50;69.60
6536;DHT22;34330;52.08032700;5.40923460;2022-07-06T04:16:14;17.60;69.70
6536;DHT22;34330;52.08032700;5.40923460;2022-07-06T04:18:42;17.70;69.80
6536;DHT22;34330;52.08032700;5.40923460;2022-07-06T04:21:10;17.50;69.50
6536;DHT22;34330;52.08032700;5.40923460;2022-07-06T04:23:38;17.60;70.00
6536;DHT22;34330;52.08032700;5.40923460;2022-07-06T04:26:06;17.60;69.60
6536;DHT22;34330;52.08032700;5.40923460;2022-07-06T04:28:34;17.60;69.70
6536;DHT22;34330;52.08032700;5.40923460;2022-07-06T04:31:03;17.60;69.60
6536;DHT22;34330;52.08032700;5.40923460;2022-07-06T04:33:31;17.60;69.70
6536;DHT22;34330;52.08032700;5.40923460;2022-07-06T04:35:59;17.60;69.50
6536;DHT22;34330;52.08032700;5.40923460;2022-07-06T04:38:27;17.60;69.50
6536;DHT22;34330;52.08032700;5.40923460;2022-07-06T04:40:55;17.60;69.70
6536;DHT22;34330;52.08032700;5.40923460;2022-07-06T04:43:23;17.60;69.60
6536;DHT22;34330;52.08032700;5.40923460;2022-07-06T04:45:52;17.60;69.60
6536;DHT22;34330;52.08032700;5.40923460;2022-07-06T04:48:21;17.70;69.70
6536;DHT22;34330;52.08032700;5.40923460;2022-07-06T04:50:50;17.60;70.00
6536;DHT22;34330;52.08032700;5.40923460;2022-07-06T04:53:18;17.70;70.00
6536;DHT22;34330;52.08032700;5.40923460;2022-07-06T04:55:46;17.70;70.00
6536;DHT22;34330;52.08032700;5.40923460;2022-07-06T04:58:14;17.70;70.20
6536;DHT22;34330;52.08032700;5.40923460;2022-07-06T05:00:42;17.70;70.10
6536;DHT22;34330;52.08032700;5.40923460;2022-07-06T05:03:10;17.80;71.00
6536;DHT22;34330;52.08032700;5.40923460;2022-07-06T05:05:39;20.50;72.90
6536;DHT22;34330;52.08032700;5.40923460;2022-07-06T05:08:07;16.30;69.10
6536;DHT22;34330;52.08032700;5.40923460;2022-07-06T05:10:35;17.80;70.10
6536;DHT22;34330;52.08032700;5.40923460;2022-07-06T05:13:03;17.80;70.30
6536;DHT22;34330;52.08032700;5.40923460;2022-07-06T05:15:31;17.70;71.70
6536;DHT22;34330;52.08032700;5.40923460;2022-07-06T05:17:59;17.80;71.80
6536;DHT22;34330;52.08032700;5.40923460;2022-07-06T05:20:27;20.80;75.20
6536;DHT22;34330;52.08032700;5.40923460;2022-07-06T05:22:56;20.70;74.80
6536;DHT22;34330;52.08032700;5.40923460;2022-07-06T05:25:24;18.00;71.90
6536;DHT22;34330;52.08032700;5.40923460;2022-07-06T05:27:52;18.10;71.40
6536;DHT22;34330;52.08032700;5.40923460;2022-07-06T05:30:20;18.10;71.30
6536;DHT22;34330;52.08032700;5.40923460;2022-07-06T05:32:48;18.20;71.00
6536;DHT22;34330;52.08032700;5.40923460;2022-07-06T05:35:16;18.30;71.00
6536;DHT22;34330;52.08032700;5.40923460;2022-07-06T05:38:05;18.40;70.80
6536;DHT22;34330;52.08032700;5.40923460;2022-07-06T05:40:33;18.40;70.90
6536;DHT22;34330;52.08032700;5.40923460;2022-07-06T05:43:01;18.50;70.40
6536;DHT22;34330;52.08032700;5.40923460;2022-07-06T05:45:29;18.60;70.80
6536;DHT22;34330;52.08032700;5.40923460;2022-07-06T05:47:57;18.60;70.60
6536;DHT22;34330;52.08032700;5.40923460;2022-07-06T05:50:43;18.70;70.50
6536;DHT22;34330;52.08032700;5.40923460;2022-07-06T05:53:12;18.80;70.20
6536;DHT22;34330;52.08032700;5.40923460;2022-07-06T05:55:45;18.80;70.70
6536;DHT22;34330;52.08032700;5.40923460;2022-07-06T05:58:13;18.90;70.00
6536;DHT22;34330;52.08032700;5.40923460;2022-07-06T06:00:42;18.90;70.20
6536;DHT22;34330;52.08032700;5.40923460;2022-07-06T06:03:10;19.00;70.40
6536;DHT22;34330;52.08032700;5.40923460;2022-07-06T06:05:38;19.00;70.40
6536;DHT22;34330;52.08032700;5.40923460;2022-07-06T06:08:06;19.10;70.10
6536;DHT22;34330;52.08032700;5.40923460;2022-07-06T06:10:35;19.10;70.20
6536;DHT22;34330;52.08032700;5.40923460;2022-07-06T06:13:03;19.20;69.90
6536;DHT22;34330;52.08032700;5.40923460;2022-07-06T06:15:31;19.30;69.60
6536;DHT22;34330;52.08032700;5.40923460;2022-07-06T06:17:59;19.40;69.40
6536;DHT22;34330;52.08032700;5.40923460;2022-07-06T06:20:27;19.50;69.50
6536;DHT22;34330;52.08032700;5.40923460;2022-07-06T06:22:57;19.60;69.50
6536;DHT22;34330;52.08032700;5.40923460;2022-07-06T06:25:28;19.60;69.60
6536;DHT22;34330;52.08032700;5.40923460;2022-07-06T06:27:58;19.70;69.40
6536;DHT22;34330;52.08032700;5.40923460;2022-07-06T06:30:26;19.80;69.40
6536;DHT22;34330;52.08032700;5.40923460;2022-07-06T06:33:08;19.80;68.80
6536;DHT22;34330;52.08032700;5.40923460;2022-07-06T06:35:37;19.90;69.00
6536;DHT22;34330;52.08032700;5.40923460;2022-07-06T06:38:05;19.90;68.30
6536;DHT22;34330;52.08032700;5.40923460;2022-07-06T06:40:32;20.00;68.40
6536;DHT22;34330;52.08032700;5.40923460;2022-07-06T06:43:02;20.00;68.50
6536;DHT22;34330;52.08032700;5.40923460;2022-07-06T06:45:30;20.10;68.10
6536;DHT22;34330;52.08032700;5.40923460;2022-07-06T06:47:58;20.20;68.20
6536;DHT22;34330;52.08032700;5.40923460;2022-07-06T06:50:26;20.20;67.30
6536;DHT22;34330;52.08032700;5.40923460;2022-07-06T06:52:54;20.30;67.80
6536;DHT22;34330;52.08032700;5.40923460;2022-07-06T06:55:22;20.30;68.60
6536;DHT22;34330;52.08032700;5.40923460;2022-07-06T06:57:50;20.40;68.10
6536;DHT22;34330;52.08032700;5.40923460;2022-07-06T07:00:20;20.50;67.20
6536;DHT22;34330;52.08032700;5.40923460;2022-07-06T07:02:48;20.60;67.00
6536;DHT22;34330;52.08032700;5.40923460;2022-07-06T07:05:16;20.70;66.90
6536;DHT22;34330;52.08032700;5.40923460;2022-07-06T07:07:43;20.80;67.00
6536;DHT22;34330;52.08032700;5.40923460;2022-07-06T07:10:11;20.90;66.20
6536;DHT22;34330;52.08032700;5.40923460;2022-07-06T07:12:44;21.00;66.10
6536;DHT22;34330;52.08032700;5.40923460;2022-07-06T07:15:11;21.00;65.90
6536;DHT22;34330;52.08032700;5.40923460;2022-07-06T07:17:41;21.10;65.20
6536;DHT22;34330;52.08032700;5.40923460;2022-07-06T07:20:10;21.20;64.80
6536;DHT22;34330;52.08032700;5.40923460;2022-07-06T07:22:39;21.30;65.00
6536;DHT22;34330;52.08032700;5.40923460;2022-07-06T07:25:08;21.40;63.60
6536;DHT22;34330;52.08032700;5.40923460;2022-07-06T07:27:36;21.50;63.20
6536;DHT22;34330;52.08032700;5.40923460;2022-07-06T07:30:05;21.60;63.00
6536;DHT22;34330;52.08032700;5.40923460;2022-07-06T07:32:33;21.60;62.80
6536;DHT22;34330;52.08032700;5.40923460;2022-07-06T07:35:03;21.60;61.80
6536;DHT22;34330;52.08032700;5.40923460;2022-07-06T07:37:31;21.80;61.60
6536;DHT22;34330;52.08032700;5.40923460;2022-07-06T07:39:59;21.80;61.40
6536;DHT22;34330;52.08032700;5.40923460;2022-07-06T07:42:27;21.80;61.50
6536;DHT22;34330;52.08032700;5.40923460;2022-07-06T07:44:55;21.90;61.20
6536;DHT22;34330;52.08032700;5.40923460;2022-07-06T07:47:22;22.00;61.40
6536;DHT22;34330;52.08032700;5.40923460;2022-07-06T07:49:50;22.00;61.40
6536;DHT22;34330;52.08032700;5.40923460;2022-07-06T07:52:20;22.10;61.60
6536;DHT22;34330;52.08032700;5.40923460;2022-07-06T07:54:47;22.10;60.90
6536;DHT22;34330;52.08032700;5.40923460;2022-07-06T07:57:35;22.20;60.10
6536;DHT22;34330;52.08032700;5.40923460;2022-07-06T08:00:04;23.20;60.80
6536;DHT22;34330;52.08032700;5.40923460;2022-07-06T08:02:32;22.30;59.80
6536;DHT22;34330;52.08032700;5.40923460;2022-07-06T08:05:00;22.40;59.50
6536;DHT22;34330;52.08032700;5.40923460;2022-07-06T08:07:30;22.40;59.60
6536;DHT22;34330;52.08032700;5.40923460;2022-07-06T08:09:57;22.40;59.30
6536;DHT22;34330;52.08032700;5.40923460;2022-07-06T08:12:25;22.40;59.10
6536;DHT22;34330;52.08032700;5.40923460;2022-07-06T08:14:53;22.50;59.10
6536;DHT22;34330;52.08032700;5.40923460;2022-07-06T08:17:22;22.50;59.00
6536;DHT22;34330;52.08032700;5.40923460;2022-07-06T08:19:58;22.50;58.70
6536;DHT22;34330;52.08032700;5.40923460;2022-07-06T08:22:37;22.50;58.50
6536;DHT22;34330;52.08032700;5.40923460;2022-07-06T08:25:06;22.50;58.70
6536;DHT22;34330;52.08032700;5.40923460;2022-07-06T08:27:34;22.50;58.90
6536;DHT22;34330;52.08032700;5.40923460;2022-07-06T08:30:03;22.50;58.20
6536;DHT22;34330;52.08032700;5.40923460;2022-07-06T08:32:31;22.50;59.00
6536;DHT22;34330;52.08032700;5.40923460;2022-07-06T08:35:19;22.50;57.50
6536;DHT22;34330;52.08032700;5.40923460;2022-07-06T08:37:48;22.70;57.70
6536;DHT22;34330;52.08032700;5.40923460;2022-07-06T08:40:16;22.70;56.80
6536;DHT22;34330;52.08032700;5.40923460;2022-07-06T08:42:45;22.80;56.80
6536;DHT22;34330;52.08032700;5.40923460;2022-07-06T08:45:16;22.90;56.90
6536;DHT22;34330;52.08032700;5.40923460;2022-07-06T08:47:44;23.00;56.50
6536;DHT22;34330;52.08032700;5.40923460;2022-07-06T08:50:13;23.00;56.10
6536;DHT22;34330;52.08032700;5.40923460;2022-07-06T08:52:41;26.30;58.10
6536;DHT22;34330;52.08032700;5.40923460;2022-07-06T08:55:12;23.30;55.70
6536;DHT22;34330;52.08032700;5.40923460;2022-07-06T08:57:41;23.30;55.00
6536;DHT22;34330;52.08032700;5.40923460;2022-07-06T09:00:09;23.40;55.10
6536;DHT22;34330;52.08032700;5.40923460;2022-07-06T09:02:40;23.50;55.90
6536;DHT22;34330;52.08032700;5.40923460;2022-07-06T09:05:09;23.50;54.80
6536;DHT22;34330;52.08032700;5.40923460;2022-07-06T09:07:40;23.50;55.10
6536;DHT22;34330;52.08032700;5.40923460;2022-07-06T09:10:26;23.50;55.00
6536;DHT22;34330;52.08032700;5.40923460;2022-07-06T09:13:02;23.50;54.60
6536;DHT22;34330;52.08032700;5.40923460;2022-07-06T09:15:31;23.60;54.60
6536;DHT22;34330;52.08032700;5.40923460;2022-07-06T09:17:59;23.60;54.10
6536;DHT22;34330;52.08032700;5.40923460;2022-07-06T09:20:27;23.60;53.80
6536;DHT22;34330;52.08032700;5.40923460;2022-07-06T09:22:58;23.70;53.30
6536;DHT22;34330;52.08032700;5.40923460;2022-07-06T09:25:29;23.80;53.40
6536;DHT22;34330;52.08032700;5.40923460;2022-07-06T09:27:58;24.00;53.20
6536;DHT22;34330;52.08032700;5.40923460;2022-07-06T09:30:27;24.10;53.40
6536;DHT22;34330;52.08032700;5.40923460;2022-07-06T09:32:56;24.20;53.90
6536;DHT22;34330;52.08032700;5.40923460;2022-07-06T09:35:26;24.30;53.40
6536;DHT22;34330;52.08032700;5.40923460;2022-07-06T09:38:04;24.40;52.80
6536;DHT22;34330;52.08032700;5.40923460;2022-07-06T09:40:35;24.40;51.90
6536;DHT22;34330;52.08032700;5.40923460;2022-07-06T09:43:11;25.70;52.20
6536;DHT22;34330;52.08032700;5.40923460;2022-07-06T09:45:41;24.60;51.00
6536;DHT22;34330;52.08032700;5.40923460;2022-07-06T09:48:11;24.70;51.40
6536;DHT22;34330;52.08032700;5.40923460;2022-07-06T09:50:45;24.80;51.10
6536;DHT22;34330;52.08032700;5.40923460;2022-07-06T09:53:14;24.80;51.00
6536;DHT22;34330;52.08032700;5.40923460;2022-07-06T09:55:45;24.80;51.10
6536;DHT22;34330;52.08032700;5.40923460;2022-07-06T09:58:14;24.80;51.30
6536;DHT22;34330;52.08032700;5.40923460;2022-07-06T10:00:42;24.80;51.40
6536;DHT22;34330;52.08032700;5.40923460;2022-07-06T10:03:12;24.80;50.80
6536;DHT22;34330;52.08032700;5.40923460;2022-07-06T10:05:42;24.90;51.30
6536;DHT22;34330;52.08032700;5.40923460;2022-07-06T10:08:13;24.90;50.60
6536;DHT22;34330;52.08032700;5.40923460;2022-07-06T10:10:44;24.90;50.40
6536;DHT22;34330;52.08032700;5.40923460;2022-07-06T10:13:14;24.90;50.00
6536;DHT22;34330;52.08032700;5.40923460;2022-07-06T10:15:48;24.90;49.60
6536;DHT22;34330;52.08032700;5.40923460;2022-07-06T10:18:16;24.90;49.70
6536;DHT22;34330;52.08032700;5.40923460;2022-07-06T10:20:45;25.00;49.00
6536;DHT22;34330;52.08032700;5.40923460;2022-07-06T10:23:13;24.90;48.50
6536;DHT22;34330;52.08032700;5.40923460;2022-07-06T10:25:43;25.00;49.10
6536;DHT22;34330;52.08032700;5.40923460;2022-07-06T10:28:12;24.90;49.50
6536;DHT22;34330;52.08032700;5.40923460;2022-07-06T10:30:42;25.00;49.60
6536;DHT22;34330;52.08032700;5.40923460;2022-07-06T10:33:11;25.10;49.30
6536;DHT22;34330;52.08032700;5.40923460;2022-07-06T10:35:42;25.10;49.50
6536;DHT22;34330;52.08032700;5.40923460;2022-07-06T10:38:11;25.10;49.20
6536;DHT22;34330;52.08032700;5.40923460;2022-07-06T10:40:40;25.10;49.10
6536;DHT22;34330;52.08032700;5.40923460;2022-07-06T10:43:33;25.10;49.10
6536;DHT22;34330;52.08032700;5.40923460;2022-07-06T10:46:08;25.20;49.30
6536;DHT22;34330;52.08032700;5.40923460;2022-07-06T10:48:38;25.10;48.50
6536;DHT22;34330;52.08032700;5.40923460;2022-07-06T10:51:07;25.20;48.60
6536;DHT22;34330;52.08032700;5.40923460;2022-07-06T10:53:36;25.20;48.60
6536;DHT22;34330;52.08032700;5.40923460;2022-07-06T10:56:06;25.30;48.20
6536;DHT22;34330;52.08032700;5.40923460;2022-07-06T10:58:37;25.30;47.80
6536;DHT22;34330;52.08032700;5.40923460;2022-07-06T11:01:08;25.30;47.70
6536;DHT22;34330;52.08032700;5.40923460;2022-07-06T11:03:38;25.30;47.70
6536;DHT22;34330;52.08032700;5.40923460;2022-07-06T11:06:08;25.30;47.80
6536;DHT22;34330;52.08032700;5.40923460;2022-07-06T11:08:55;25.40;48.30
6536;DHT22;34330;52.08032700;5.40923460;2022-07-06T11:11:25;25.30;48.20
6536;DHT22;34330;52.08032700;5.40923460;2022-07-06T11:13:59;25.40;48.90
6536;DHT22;34330;52.08032700;5.40923460;2022-07-06T11:16:30;25.40;48.40
6536;DHT22;34330;52.08032700;5.40923460;2022-07-06T11:19:09;25.40;48.50
6536;DHT22;34330;52.08032700;5.40923460;2022-07-06T11:21:39;25.50;48.50
6536;DHT22;34330;52.08032700;5.40923460;2022-07-06T11:24:10;28.00;50.50
6536;DHT22;34330;52.08032700;5.40923460;2022-07-06T11:26:38;22.80;46.10
6536;DHT22;34330;52.08032700;5.40923460;2022-07-06T11:29:09;25.70;47.70
6536;DHT22;34330;52.08032700;5.40923460;2022-07-06T11:31:39;25.70;47.40
6536;DHT22;34330;52.08032700;5.40923460;2022-07-06T11:34:08;25.70;47.00
6536;DHT22;34330;52.08032700;5.40923460;2022-07-06T11:36:37;25.70;47.50
6536;DHT22;34330;52.08032700;5.40923460;2022-07-06T11:39:12;25.80;47.40
6536;DHT22;34330;52.08032700;5.40923460;2022-07-06T11:41:40;25.90;47.00
6536;DHT22;34330;52.08032700;5.40923460;2022-07-06T11:44:18;26.00;46.90
6536;DHT22;34330;52.08032700;5.40923460;2022-07-06T11:46:46;26.00;46.60
6536;DHT22;34330;52.08032700;5.40923460;2022-07-06T11:49:14;26.10;46.60
6536;DHT22;34330;52.08032700;5.40923460;2022-07-06T11:51:44;26.10;46.20
6536;DHT22;34330;52.08032700;5.40923460;2022-07-06T11:54:14;26.20;46.60
6536;DHT22;34330;52.08032700;5.40923460;2022-07-06T11:56:46;26.30;45.90
6536;DHT22;34330;52.08032700;5.40923460;2022-07-06T11:59:19;26.30;46.40
6536;DHT22;34330;52.08032700;5.40923460;2022-07-06T12:01:49;26.40;46.90
6536;DHT22;34330;52.08032700;5.40923460;2022-07-06T12:04:18;26.50;45.70
6536;DHT22;34330;52.08032700;5.40923460;2022-07-06T12:06:46;26.50;45.70
6536;DHT22;34330;52.08032700;5.40923460;2022-07-06T12:09:14;26.50;46.00
6536;DHT22;34330;52.08032700;5.40923460;2022-07-06T12:11:45;26.60;46.00
6536;DHT22;34330;52.08032700;5.40923460;2022-07-06T12:14:15;26.60;46.20
6536;DHT22;34330;52.08032700;5.40923460;2022-07-06T12:16:45;26.70;46.20
6536;DHT22;34330;52.08032700;5.40923460;2022-07-06T12:19:14;26.70;45.90
6536;DHT22;34330;52.08032700;5.40923460;2022-07-06T12:21:44;26.80;45.20
6536;DHT22;34330;52.08032700;5.40923460;2022-07-06T12:24:17;26.90;46.20
6536;DHT22;34330;52.08032700;5.40923460;2022-07-06T12:26:46;27.00;45.50
6536;DHT22;34330;52.08032700;5.40923460;2022-07-06T12:29:15;27.20;46.40
6536;DHT22;34330;52.08032700;5.40923460;2022-07-06T12:31:48;27.30;45.10
6536;DHT22;34330;52.08032700;5.40923460;2022-07-06T12:34:19;27.40;44.30
6536;DHT22;34330;52.08032700;5.40923460;2022-07-06T12:36:49;27.50;44.30
6536;DHT22;34330;52.08032700;5.40923460;2022-07-06T12:39:18;27.60;43.70
6536;DHT22;34330;52.08032700;5.40923460;2022-07-06T12:41:48;27.60;43.60
6536;DHT22;34330;52.08032700;5.40923460;2022-07-06T12:44:17;28.80;44.00
6536;DHT22;34330;52.08032700;5.40923460;2022-07-06T12:46:46;27.60;43.40
6536;DHT22;34330;52.08032700;5.40923460;2022-07-06T12:49:18;27.60;43.60
6536;DHT22;34330;52.08032700;5.40923460;2022-07-06T12:51:54;27.50;43.80
6536;DHT22;34330;52.08032700;5.40923460;2022-07-06T12:54:24;27.60;42.90
6536;DHT22;34330;52.08032700;5.40923460;2022-07-06T12:57:00;27.60;44.00
6536;DHT22;34330;52.08032700;5.40923460;2022-07-06T12:59:28;27.60;43.50
6536;DHT22;34330;52.08032700;5.40923460;2022-07-06T13:01:57;27.60;43.90
6536;DHT22;34330;52.08032700;5.40923460;2022-07-06T13:04:28;27.70;43.40
6536;DHT22;34330;52.08032700;5.40923460;2022-07-06T13:06:56;27.70;43.20
6536;DHT22;34330;52.08032700;5.40923460;2022-07-06T13:09:32;27.70;42.90
6536;DHT22;34330;52.08032700;5.40923460;2022-07-06T13:12:01;27.80;43.00
6536;DHT22;34330;52.08032700;5.40923460;2022-07-06T13:14:28;27.80;43.10
6536;DHT22;34330;52.08032700;5.40923460;2022-07-06T13:16:56;27.80;43.10
6536;DHT22;34330;52.08032700;5.40923460;2022-07-06T13:19:26;27.90;42.50
6536;DHT22;34330;52.08032700;5.40923460;2022-07-06T13:21:54;27.90;42.90
6536;DHT22;34330;52.08032700;5.40923460;2022-07-06T13:24:22;30.40;43.80
6536;DHT22;34330;52.08032700;5.40923460;2022-07-06T13:26:50;29.50;43.00
6536;DHT22;34330;52.08032700;5.40923460;2022-07-06T13:29:18;28.70;42.50
6536;DHT22;34330;52.08032700;5.40923460;2022-07-06T13:31:46;28.00;41.90
6536;DHT22;34330;52.08032700;5.40923460;2022-07-06T13:34:14;28.00;41.80
6536;DHT22;34330;52.08032700;5.40923460;2022-07-06T13:36:44;27.90;41.60
6536;DHT22;34330;52.08032700;5.40923460;2022-07-06T13:39:12;27.90;41.60
6536;DHT22;34330;52.08032700;5.40923460;2022-07-06T13:41:39;27.90;41.80
6536;DHT22;34330;52.08032700;5.40923460;2022-07-06T13:44:08;27.90;42.00
6536;DHT22;34330;52.08032700;5.40923460;2022-07-06T13:46:41;27.90;42.00
6536;DHT22;34330;52.08032700;5.40923460;2022-07-06T13:49:09;27.90;42.30
6536;DHT22;34330;52.08032700;5.40923460;2022-07-06T13:51:37;27.90;42.60
6536;DHT22;34330;52.08032700;5.40923460;2022-07-06T13:54:07;28.00;42.90
6536;DHT22;34330;52.08032700;5.40923460;2022-07-06T13:56:37;28.00;42.40
6536;DHT22;34330;52.08032700;5.40923460;2022-07-06T13:59:05;28.10;42.30
6536;DHT22;34330;52.08032700;5.40923460;2022-07-06T14:01:33;28.20;41.70
6536;DHT22;34330;52.08032700;5.40923460;2022-07-06T14:04:01;28.20;41.80
6536;DHT22;34330;52.08032700;5.40923460;2022-07-06T14:06:29;28.20;41.60
6536;DHT22;34330;52.08032700;5.40923460;2022-07-06T14:08:57;28.20;41.30
6536;DHT22;34330;52.08032700;5.40923460;2022-07-06T14:11:26;28.20;41.80
6536;DHT22;34330;52.08032700;5.40923460;2022-07-06T14:13:54;28.20;41.10
6536;DHT22;34330;52.08032700;5.40923460;2022-07-06T14:16:22;28.20;41.40
6536;DHT22;34330;52.08032700;5.40923460;2022-07-06T14:18:50;28.10;40.60
6536;DHT22;34330;52.08032700;5.40923460;2022-07-06T14:21:18;28.10;41.40
6536;DHT22;34330;52.08032700;5.40923460;2022-07-06T14:23:46;28.10;41.60
6536;DHT22;34330;52.08032700;5.40923460;2022-07-06T14:26:16;28.10;41.40
6536;DHT22;34330;52.08032700;5.40923460;2022-07-06T14:28:45;28.10;41.60
6536;DHT22;34330;52.08032700;5.40923460;2022-07-06T14:31:13;28.10;41.90
6536;DHT22;34330;52.08032700;5.40923460;2022-07-06T14:33:48;28.10;41.80
6536;DHT22;34330;52.08032700;5.40923460;2022-07-06T14:36:16;28.10;41.70
6536;DHT22;34330;52.08032700;5.40923460;2022-07-06T14:38:45;28.00;41.70
6536;DHT22;34330;52.08032700;5.40923460;2022-07-06T14:41:12;28.00;41.80
6536;DHT22;34330;52.08032700;5.40923460;2022-07-06T14:43:40;27.90;41.70